Time;durP1;ratioP1;P1;durP2;ratioP2;P2;SDS_P1;SDS_P2;PMS_P1;PMS_P2;Temp;Humidity;BMP_temperature;BMP_pressure;BME280_temperature;BME280_humidity;BME280_pressure;Samples;Min_cycle;Max_cycle;Signal;HPM_P1;HPM_P2
2021/11/06 00:02:07;;;;;;;37.85;22.98;;;;;;;12.96;100.00;101285.52;1737109;81;21004;-44
2021/11/06 00:04:35;;;;;;;39.90;23.85;;;;;;;12.93;100.00;101295.08;1735382;82;21530;-44
2021/11/06 00:07:02;;;;;;;40.58;23.98;;;;;;;12.90;100.00;101288.63;1735216;82;21501;-44
2021/11/06 00:09:28;;;;;;;39.95;24.32;;;;;;;12.87;100.00;101276.98;1713056;82;20933;-44
2021/11/06 00:11:56;;;;;;;35.00;23.40;;;;;;;12.85;100.00;101271.38;1735239;82;22621;-45
2021/11/06 00:14:23;;;;;;;38.67;24.37;;;;;;;12.83;100.00;101275.75;1735248;82;21436;-44
2021/11/06 00:16:53;;;;;;;39.45;24.87;;;;;;;12.79;100.00;101271.06;1735107;82;21619;-45
2021/11/06 00:19:19;;;;;;;40.83;24.52;;;;;;;12.76;100.00;101268.05;1735387;81;21699;-44
2021/11/06 00:21:45;;;;;;;38.15;24.63;;;;;;;12.75;100.00;101265.46;1735244;82;20971;-45
2021/11/06 00:24:12;;;;;;;38.10;23.42;;;;;;;12.72;100.00;101259.89;1735145;82;21107;-44
2021/11/06 00:26:39;;;;;;;36.53;23.95;;;;;;;12.71;100.00;101250.37;1735114;82;20968;-44
2021/11/06 00:29:05;;;;;;;39.20;24.23;;;;;;;12.71;100.00;101258.59;1735118;82;20984;-44
2021/11/06 00:31:32;;;;;;;39.38;24.10;;;;;;;12.69;100.00;101259.06;1735024;82;20941;-45
2021/11/06 00:33:59;;;;;;;40.80;24.37;;;;;;;12.68;100.00;101259.95;1735095;82;20984;-45
2021/11/06 00:36:25;;;;;;;36.08;23.18;;;;;;;12.65;100.00;101253.91;1735211;82;21131;-45
2021/11/06 00:38:52;;;;;;;40.30;24.50;;;;;;;12.64;100.00;101253.95;1735008;82;20976;-44
2021/11/06 00:41:19;;;;;;;40.45;24.92;;;;;;;12.63;100.00;101251.78;1735121;82;21023;-44
2021/11/06 00:43:45;;;;;;;45.67;24.85;;;;;;;12.60;100.00;101250.53;1735163;82;20964;-44
2021/11/06 00:46:11;;;;;;;43.38;24.05;;;;;;;12.60;100.00;101234.95;1735348;81;21004;-44
2021/11/06 00:48:38;;;;;;;43.48;23.73;;;;;;;12.60;100.00;101241.44;1735309;82;21146;-45
2021/11/06 00:51:04;;;;;;;44.53;23.20;;;;;;;12.60;100.00;101247.06;1735364;81;21521;-44
2021/11/06 00:53:33;;;;;;;37.58;21.75;;;;;;;12.59;100.00;101257.91;1735306;81;20976;-44
2021/11/06 00:55:59;;;;;;;45.52;23.90;;;;;;;12.58;100.00;101256.19;1735660;81;20988;-44
2021/11/06 00:58:26;;;;;;;38.33;22.00;;;;;;;12.58;100.00;101257.91;1735330;82;20937;-44
2021/11/06 01:00:52;;;;;;;42.65;22.60;;;;;;;12.58;100.00;101263.11;1738136;81;21142;-44
2021/11/06 01:03:18;;;;;;;35.35;22.95;;;;;;;12.57;100.00;101267.46;1749307;82;20999;-45
2021/11/06 01:05:45;;;;;;;40.92;24.18;;;;;;;12.59;100.00;101267.42;1749462;82;20971;-45
2021/11/06 01:08:12;;;;;;;34.88;22.42;;;;;;;12.58;100.00;101263.11;1749161;81;21003;-44
2021/11/06 01:10:38;;;;;;;41.50;23.57;;;;;;;12.57;100.00;101266.59;1721933;82;20937;-44
2021/11/06 01:13:05;;;;;;;42.58;24.47;;;;;;;12.53;100.00;101264.49;1749386;82;21379;-44
2021/11/06 01:15:32;;;;;;;41.18;24.27;;;;;;;12.52;100.00;101260.60;1749195;82;20944;-44
2021/11/06 01:17:59;;;;;;;40.40;24.50;;;;;;;12.50;100.00;101261.91;1749292;82;20999;-44
2021/11/06 01:20:26;;;;;;;43.08;23.77;;;;;;;12.49;100.00;101262.79;1749257;82;21454;-44
2021/11/06 01:22:52;;;;;;;45.88;26.55;;;;;;;12.47;100.00;101255.46;1721549;82;21501;-45
2021/11/06 01:25:19;;;;;;;44.73;25.32;;;;;;;12.45;100.00;101248.14;1749373;82;21990;-45
2021/11/06 01:27:46;;;;;;;43.48;25.20;;;;;;;12.44;100.00;101245.12;1749078;81;21003;-44
2021/11/06 01:30:12;;;;;;;41.68;25.15;;;;;;;12.43;100.00;101245.58;1749230;81;20987;-44
2021/11/06 01:32:40;;;;;;;45.35;25.20;;;;;;;12.42;100.00;101249.48;1749287;82;20995;-45
2021/11/06 01:35:09;;;;;;;58.75;27.02;;;;;;;12.40;100.00;101244.33;1749302;82;20967;-44
2021/11/06 01:37:36;;;;;;;64.65;27.77;;;;;;;12.39;100.00;101238.72;1721630;82;21011;-44
2021/11/06 01:40:05;;;;;;;81.80;29.07;;;;;;;12.38;100.00;101237.42;1749091;82;20932;-44
2021/11/06 01:42:31;;;;;;;82.75;30.25;;;;;;;12.38;100.00;101230.51;1749323;81;20928;-44
2021/11/06 01:44:59;;;;;;;65.65;29.07;;;;;;;12.38;100.00;101233.53;1721624;82;21513;-44
2021/11/06 01:47:25;;;;;;;77.47;28.90;;;;;;;12.36;100.00;101237.43;1721685;82;21597;-44
2021/11/06 01:49:51;;;;;;;57.40;26.17;;;;;;;12.36;100.00;101237.43;1749285;82;21493;-45
2021/11/06 01:52:18;;;;;;;64.15;27.70;;;;;;;12.34;100.00;101234.88;1749597;82;21549;-44
2021/11/06 01:54:45;;;;;;;44.77;25.72;;;;;;;12.32;100.00;101239.23;1749261;82;21651;-45
2021/11/06 01:57:11;;;;;;;46.68;26.97;;;;;;;12.31;100.00;101240.53;1749478;82;21576;-44
2021/11/06 01:59:38;;;;;;;46.70;26.97;;;;;;;12.26;100.00;101243.21;1749220;82;20980;-44
2021/11/06 02:02:04;;;;;;;45.55;27.32;;;;;;;12.24;100.00;101255.78;1741119;81;21510;-44
2021/11/06 02:04:31;;;;;;;42.60;25.10;;;;;;;12.18;100.00;101258.00;1735182;82;21060;-44
2021/11/06 02:06:57;;;;;;;43.02;26.52;;;;;;;12.16;100.00;101253.27;1735245;82;21034;-44
2021/11/06 02:09:24;;;;;;;50.88;26.02;;;;;;;12.12;100.00;101254.19;1735496;82;21036;-44
2021/11/06 02:11:51;;;;;;;48.58;25.75;;;;;;;12.09;100.00;101249.88;1735111;81;21023;-44
2021/11/06 02:14:17;;;;;;;47.08;26.80;;;;;;;12.06;100.00;101249.50;1735164;81;21304;-44
2021/11/06 02:16:45;;;;;;;43.08;25.15;;;;;;;12.06;100.00;101270.27;1735138;82;20960;-45
2021/11/06 02:19:12;;;;;;;44.40;25.27;;;;;;;12.04;100.00;101275.03;1735181;82;21522;-44
2021/11/06 02:21:39;;;;;;;41.77;24.67;;;;;;;12.01;100.00;101265.99;1735217;82;21458;-44
2021/11/06 02:24:06;;;;;;;49.23;26.40;;;;;;;11.97;100.00;101269.02;1735236;82;20941;-44
2021/11/06 02:26:33;;;;;;;45.70;26.17;;;;;;;11.94;100.00;101271.65;1712785;82;20996;-44
2021/11/06 02:29:01;;;;;;;47.60;26.17;;;;;;;11.89;100.00;101269.12;1735124;82;20921;-44
2021/11/06 02:31:28;;;;;;;45.88;26.05;;;;;;;11.86;100.00;101264.41;1735157;82;21047;-44
2021/11/06 02:33:55;;;;;;;53.08;25.92;;;;;;;11.82;100.00;101252.34;1735164;82;21450;-44
2021/11/06 02:36:21;;;;;;;49.33;26.33;;;;;;;11.78;100.00;101247.62;1735212;82;21019;-44
2021/11/06 02:38:48;;;;;;;55.35;26.33;;;;;;;11.75;100.00;101243.34;1735261;82;21755;-45
2021/11/06 02:41:15;;;;;;;61.70;27.17;;;;;;;11.74;100.00;101244.19;1735231;82;20897;-44
2021/11/06 02:43:42;;;;;;;50.15;25.55;;;;;;;11.72;100.00;101240.75;1735233;82;20983;-44
2021/11/06 02:46:08;;;;;;;49.73;27.27;;;;;;;11.70;100.00;101245.55;1735271;82;20960;-44
2021/11/06 02:48:36;;;;;;;41.13;23.38;;;;;;;11.68;100.00;101244.26;1735344;82;21023;-44
2021/11/06 02:51:04;;;;;;;50.60;26.27;;;;;;;11.67;100.00;101246.88;1735105;81;21114;-44
2021/11/06 02:53:32;;;;;;;42.05;24.82;;;;;;;11.67;100.00;101255.96;1735140;82;20905;-44
2021/11/06 02:55:58;;;;;;;66.97;27.17;;;;;;;11.66;100.00;101251.66;1735417;82;20976;-44
2021/11/06 02:58:25;;;;;;;66.82;27.55;;;;;;;11.66;100.00;101251.20;1712960;82;20972;-45
2021/11/06 03:00:52;;;;;;;60.75;29.12;;;;;;;11.66;100.00;101257.68;1735086;82;21498;-45
2021/11/06 03:03:19;;;;;;;65.90;29.10;;;;;;;11.64;100.00;101262.91;1748383;82;21494;-44
2021/11/06 03:05:46;;;;;;;59.15;27.45;;;;;;;11.62;100.00;101263.78;1749265;82;21442;-44
2021/11/06 03:08:12;;;;;;;55.98;28.07;;;;;;;11.59;100.00;101267.70;1749275;82;21019;-44
2021/11/06 03:10:39;;;;;;;54.65;27.98;;;;;;;11.56;100.00;101267.28;1749180;82;20988;-45
2021/11/06 03:13:06;;;;;;;61.45;28.52;;;;;;;11.53;100.00;101261.28;1749149;82;20933;-44
2021/11/06 03:15:34;;;;;;;61.60;27.95;;;;;;;11.51;100.00;101262.58;1749230;82;21148;-44
2021/11/06 03:18:00;;;;;;;65.95;29.75;;;;;;;11.50;100.00;101256.98;1698250;82;21546;-44
2021/11/06 03:20:27;;;;;;;60.35;28.32;;;;;;;11.48;100.00;101254.38;1749019;82;20933;-44
2021/11/06 03:22:58;;;;;;;65.78;28.80;;;;;;;11.48;100.00;101247.91;1749084;81;20964;-44
2021/11/06 03:25:21;;;;;;;63.70;28.50;;;;;;;11.46;100.00;101249.66;1748891;82;20952;-45
2021/11/06 03:27:48;;;;;;;70.47;29.72;;;;;;;11.45;100.00;101250.53;1749360;80;21906;-44
2021/11/06 03:30:15;;;;;;;56.65;27.37;;;;;;;11.44;100.00;101250.11;1748949;81;20925;-44
2021/11/06 03:32:42;;;;;;;52.93;26.33;;;;;;;11.45;100.00;101254.88;1749179;82;21015;-44
2021/11/06 03:35:09;;;;;;;47.80;26.20;;;;;;;11.43;100.00;101256.63;1749011;82;21053;-45
2021/11/06 03:37:35;;;;;;;50.05;26.45;;;;;;;11.42;100.00;101258.80;1749192;81;21533;-44
2021/11/06 03:40:04;;;;;;;52.93;26.42;;;;;;;11.40;100.00;101263.13;1749147;82;21151;-44
2021/11/06 03:42:31;;;;;;;46.60;25.32;;;;;;;11.39;100.00;101260.96;1748918;82;20877;-44
2021/11/06 03:44:57;;;;;;;50.33;27.10;;;;;;;11.39;100.00;101260.13;1749443;82;20987;-44
2021/11/06 03:47:24;;;;;;;42.43;24.37;;;;;;;11.38;100.00;101263.13;1749094;82;20881;-44
2021/11/06 03:49:50;;;;;;;42.05;23.55;;;;;;;11.36;100.00;101260.54;1749151;82;20975;-44
2021/11/06 03:52:17;;;;;;;45.15;24.12;;;;;;;11.36;100.00;101251.92;1748955;82;21120;-44
2021/11/06 03:54:44;;;;;;;50.78;26.27;;;;;;;11.37;100.00;101247.16;1749325;82;20924;-44
2021/11/06 03:57:11;;;;;;;46.58;25.35;;;;;;;11.38;100.00;101246.28;1749228;82;20959;-44
2021/11/06 03:59:37;;;;;;;40.95;23.87;;;;;;;11.37;100.00;101231.61;1749174;82;21041;-44
2021/11/06 04:02:05;;;;;;;46.10;25.25;;;;;;;11.37;100.00;101236.79;1744732;81;20973;-44
2021/11/06 04:04:31;;;;;;;60.10;25.70;;;;;;;11.35;100.00;101234.20;1735097;82;21268;-44
2021/11/06 04:06:58;;;;;;;72.65;27.00;;;;;;;11.35;100.00;101233.36;1735132;82;21632;-44
2021/11/06 04:09:24;;;;;;;53.05;23.38;;;;;;;11.34;100.00;101226.45;1735179;82;21527;-44
2021/11/06 04:11:51;;;;;;;38.20;21.87;;;;;;;11.34;100.00;101214.34;1712890;82;21529;-44
2021/11/06 04:14:17;;;;;;;47.67;22.62;;;;;;;11.33;100.00;101219.55;1735173;82;20901;-44
2021/11/06 04:16:44;;;;;;;59.23;22.22;;;;;;;11.32;100.00;101221.72;1735386;82;21088;-45
2021/11/06 04:19:10;;;;;;;56.80;21.52;;;;;;;11.30;100.00;101229.95;1712634;82;21549;-45
2021/11/06 04:21:38;;;;;;;41.98;21.30;;;;;;;11.32;100.00;101239.87;1735281;82;21321;-44
2021/11/06 04:24:05;;;;;;;49.33;21.50;;;;;;;11.32;100.00;101239.41;1689408;82;21015;-44
2021/11/06 04:26:32;;;;;;;37.13;18.30;;;;;;;11.31;100.00;101235.56;1735362;82;21239;-44
2021/11/06 04:28:59;;;;;;;27.52;17.52;;;;;;;11.30;100.00;101248.94;1735272;82;21051;-44
2021/11/06 04:31:25;;;;;;;30.25;16.90;;;;;;;11.29;100.00;101256.75;1713020;82;20953;-44
2021/11/06 04:33:52;;;;;;;23.15;15.32;;;;;;;11.27;100.00;101264.97;1735311;82;20937;-44
2021/11/06 04:36:19;;;;;;;26.48;14.47;;;;;;;11.25;100.00;101268.86;1735295;82;20937;-44
2021/11/06 04:38:45;;;;;;;21.80;13.85;;;;;;;11.23;100.00;101268.44;1735594;82;20976;-44
2021/11/06 04:41:12;;;;;;;27.60;15.45;;;;;;;11.21;100.00;101275.78;1735103;81;21110;-44
2021/11/06 04:43:38;;;;;;;20.02;12.65;;;;;;;11.21;100.00;101288.74;1735246;82;20968;-44
2021/11/06 04:46:05;;;;;;;18.85;12.80;;;;;;;11.20;100.00;101288.32;1735359;82;20932;-44
2021/11/06 04:48:32;;;;;;;20.48;12.03;;;;;;;11.19;100.00;101300.86;1735309;82;20984;-44
2021/11/06 04:50:58;;;;;;;19.90;12.90;;;;;;;11.18;100.00;101304.32;1735396;82;20984;-44
2021/11/06 04:53:25;;;;;;;18.50;11.83;;;;;;;11.18;100.00;101309.50;1735403;82;21093;-44
2021/11/06 04:55:51;;;;;;;17.85;11.68;;;;;;;11.17;100.00;101314.72;1735236;82;20968;-45
2021/11/06 04:58:18;;;;;;;18.23;11.90;;;;;;;11.16;100.00;101315.13;1735475;82;21411;-44
2021/11/06 05:00:44;;;;;;;21.02;11.95;;;;;;;11.17;100.00;101316.02;1714243;82;20956;-45
2021/11/06 05:03:13;;;;;;;15.48;10.55;;;;;;;11.15;100.00;101309.53;1740448;81;20963;-44
2021/11/06 05:05:39;;;;;;;16.93;11.03;;;;;;;11.16;100.00;101311.70;1743385;81;21258;-44
2021/11/06 05:08:06;;;;;;;17.10;10.35;;;;;;;11.15;100.00;101309.98;1713785;82;21502;-44
2021/11/06 05:10:32;;;;;;;19.87;11.22;;;;;;;11.16;100.00;101321.61;1743495;82;20952;-44
2021/11/06 05:12:59;;;;;;;16.97;10.58;;;;;;;11.15;100.00;101333.30;1743409;81;21510;-44
2021/11/06 05:15:27;;;;;;;15.30;10.80;;;;;;;11.14;100.00;101340.20;1743455;82;21550;-44
2021/11/06 05:17:54;;;;;;;20.30;11.48;;;;;;;11.10;100.00;101346.28;1743520;82;21946;-44
2021/11/06 05:20:21;;;;;;;17.27;10.35;;;;;;;11.09;100.00;101347.57;1743493;82;21024;-44
2021/11/06 05:22:47;;;;;;;18.50;11.08;;;;;;;11.09;100.00;101348.86;1743487;82;20944;-45
2021/11/06 05:25:14;;;;;;;18.30;10.93;;;;;;;11.10;100.00;101351.46;1743298;82;20969;-44
2021/11/06 05:27:40;;;;;;;16.40;11.00;;;;;;;11.12;100.00;101341.95;1743438;82;20922;-44
2021/11/06 05:30:09;;;;;;;20.23;10.82;;;;;;;11.14;100.00;101340.20;1743266;82;21151;-44
2021/11/06 05:32:36;;;;;;;17.95;11.03;;;;;;;11.15;100.00;101338.03;1743286;82;20962;-44
2021/11/06 05:35:04;;;;;;;14.45;10.28;;;;;;;11.15;100.00;101344.52;1743626;82;20944;-44
2021/11/06 05:37:31;;;;;;;16.45;10.68;;;;;;;11.16;100.00;101346.23;1714065;82;20949;-44
2021/11/06 05:39:57;;;;;;;13.38;10.00;;;;;;;11.18;100.00;101348.83;1743507;82;20928;-44
2021/11/06 05:42:24;;;;;;;14.85;10.30;;;;;;;11.20;100.00;101356.16;1743308;82;21282;-44
2021/11/06 05:44:51;;;;;;;16.67;10.65;;;;;;;11.21;100.00;101360.47;1743265;82;20964;-44
2021/11/06 05:47:17;;;;;;;15.93;10.55;;;;;;;11.21;100.00;101363.05;1743457;82;20941;-44
2021/11/06 05:49:43;;;;;;;14.85;10.13;;;;;;;11.23;100.00;101377.28;1743310;82;20924;-44
2021/11/06 05:52:10;;;;;;;18.40;11.40;;;;;;;11.24;100.00;101381.59;1743401;81;21055;-44
2021/11/06 05:54:37;;;;;;;14.40;9.45;;;;;;;11.25;100.00;101372.98;1743421;82;21139;-44
2021/11/06 05:57:04;;;;;;;15.25;10.45;;;;;;;11.25;100.00;101370.39;1743446;82;20979;-45
2021/11/06 05:59:30;;;;;;;18.50;10.48;;;;;;;11.27;100.00;101374.67;1714420;82;20941;-45
2021/11/06 06:01:57;;;;;;;13.62;10.30;;;;;;;11.28;100.00;101371.66;1743403;81;20932;-45
2021/11/06 06:04:24;;;;;;;17.00;10.95;;;;;;;11.30;100.00;101373.80;1749391;82;20939;-44
2021/11/06 06:06:51;;;;;;;19.05;10.82;;;;;;;11.29;100.00;101375.97;1749325;82;21135;-45
2021/11/06 06:09:17;;;;;;;18.00;10.65;;;;;;;11.30;100.00;101380.28;1721673;82;22187;-45
2021/11/06 06:11:44;;;;;;;15.53;10.38;;;;;;;11.29;100.00;101387.18;1749261;82;21533;-45
2021/11/06 06:14:11;;;;;;;18.57;11.45;;;;;;;11.30;100.00;101393.23;1749157;81;21023;-44
2021/11/06 06:16:38;;;;;;;17.35;11.30;;;;;;;11.29;100.00;101398.00;1749242;82;20940;-45
2021/11/06 06:19:06;;;;;;;16.20;10.63;;;;;;;11.30;100.00;101413.52;1749248;81;21038;-45
2021/11/06 06:21:33;;;;;;;15.72;10.30;;;;;;;11.30;100.00;101410.93;1749071;82;20967;-45
2021/11/06 06:23:59;;;;;;;15.13;9.63;;;;;;;11.30;100.00;101416.11;1749069;81;21493;-45
2021/11/06 06:26:26;;;;;;;12.93;9.00;;;;;;;11.30;100.00;101406.20;1749409;82;21502;-45
2021/11/06 06:28:52;;;;;;;17.65;8.15;;;;;;;11.31;100.00;101410.06;1749416;82;21465;-45
2021/11/06 06:31:19;;;;;;;13.43;8.25;;;;;;;11.32;100.00;101414.83;1721688;82;21553;-45
2021/11/06 06:33:45;;;;;;;6.85;5.53;;;;;;;11.32;100.00;101442.05;1749185;82;21063;-45
2021/11/06 06:36:11;;;;;;;10.28;5.15;;;;;;;11.07;100.00;101449.49;1749550;82;22216;-45
2021/11/06 06:38:38;;;;;;;7.70;5.08;;;;;;;10.83;100.00;101460.83;1749151;82;20940;-44
2021/11/06 06:41:05;;;;;;;6.70;5.00;;;;;;;10.58;100.00;101460.91;1722089;82;20908;-45
2021/11/06 06:43:32;;;;;;;5.03;4.58;;;;;;;10.35;100.00;101473.83;1749080;81;21117;-45
2021/11/06 06:45:59;;;;;;;5.25;4.75;;;;;;;10.17;100.00;101482.48;1749360;82;20948;-45
2021/11/06 06:48:25;;;;;;;8.80;5.00;;;;;;;10.05;100.00;101470.41;1749234;81;21513;-45
2021/11/06 06:50:52;;;;;;;5.67;4.83;;;;;;;9.97;100.00;101495.42;1721262;82;21550;-44
2021/11/06 06:53:20;;;;;;;7.60;5.50;;;;;;;9.92;100.00;101489.82;1749344;82;21533;-45
2021/11/06 06:55:48;;;;;;;6.37;5.70;;;;;;;9.88;100.00;101493.27;1749559;82;21117;-45
2021/11/06 06:58:14;;;;;;;9.03;5.95;;;;;;;9.85;100.00;101500.16;1749051;82;21501;-45
2021/11/06 07:00:41;;;;;;;8.98;5.53;;;;;;;9.85;100.00;101498.86;1749083;82;20928;-45
2021/11/06 07:03:08;;;;;;;6.20;5.60;;;;;;;9.82;100.00;101500.16;1744323;82;21460;-45
2021/11/06 07:05:35;;;;;;;8.63;6.60;;;;;;;9.83;100.00;101501.87;1735268;82;21493;-45
2021/11/06 07:08:03;;;;;;;6.50;5.90;;;;;;;9.82;100.00;101502.29;1735212;82;21506;-45
2021/11/06 07:10:29;;;;;;;7.22;5.28;;;;;;;9.82;100.00;101505.33;1735022;82;21302;-45
2021/11/06 07:12:56;;;;;;;7.72;5.30;;;;;;;9.80;100.00;101507.05;1735495;82;20893;-45
2021/11/06 07:15:24;;;;;;;5.50;4.97;;;;;;;9.75;100.00;101510.49;1735167;82;20965;-46
2021/11/06 07:17:50;;;;;;;6.28;4.60;;;;;;;9.72;100.00;101522.54;1735443;82;21012;-44
2021/11/06 07:20:19;;;;;;;5.25;4.10;;;;;;;9.70;100.00;101522.52;1714357;82;21125;-44
2021/11/06 07:22:47;;;;;;;4.08;3.77;;;;;;;9.65;100.00;101529.41;1735136;82;21019;-45
2021/11/06 07:25:14;;;;;;;7.45;3.80;;;;;;;9.63;100.00;101525.55;1735145;82;20921;-44
2021/11/06 07:27:41;;;;;;;4.58;3.52;;;;;;;9.61;100.00;101529.85;1735030;82;21030;-44
2021/11/06 07:30:09;;;;;;;6.83;3.87;;;;;;;9.60;100.00;101529.84;1735084;81;21405;-44
2021/11/06 07:32:36;;;;;;;3.92;3.35;;;;;;;9.59;100.00;101521.65;1714735;82;21097;-44
2021/11/06 07:35:03;;;;;;;2.95;2.75;;;;;;;9.58;100.00;101517.34;1735186;82;21494;-44
2021/11/06 07:37:32;;;;;;;6.33;2.55;;;;;;;9.57;100.00;101520.34;1714422;82;20968;-44
2021/11/06 07:39:58;;;;;;;3.70;3.25;;;;;;;9.59;100.00;101521.20;1735034;82;21598;-44
2021/11/06 07:42:25;;;;;;;2.77;2.52;;;;;;;9.59;100.00;101517.77;1735187;82;21098;-44
2021/11/06 07:44:52;;;;;;;3.12;2.62;;;;;;;9.60;100.00;101511.33;1714177;82;21211;-44
2021/11/06 07:47:18;;;;;;;3.52;2.85;;;;;;;9.64;100.00;101517.34;1735321;82;20968;-44
2021/11/06 07:49:45;;;;;;;3.05;2.80;;;;;;;9.68;100.00;101516.94;1735116;82;20973;-45
2021/11/06 07:52:12;;;;;;;2.90;2.70;;;;;;;9.71;100.00;101528.13;1735125;82;20972;-45
2021/11/06 07:54:38;;;;;;;3.22;2.90;;;;;;;9.70;100.00;101531.58;1735280;82;20941;-45
2021/11/06 07:57:05;;;;;;;3.05;2.85;;;;;;;9.70;100.00;101521.23;1735372;81;21600;-45
2021/11/06 07:59:32;;;;;;;4.22;2.95;;;;;;;9.72;100.00;101523.39;1714415;82;20984;-45
2021/11/06 08:01:58;;;;;;;3.62;3.20;;;;;;;9.76;100.00;101525.56;1735348;82;21015;-45
2021/11/06 08:04:25;;;;;;;3.40;3.20;;;;;;;9.80;100.00;101535.49;1745615;81;21616;-45
2021/11/06 08:06:51;;;;;;;3.62;3.08;;;;;;;9.75;100.00;101529.88;1749109;81;21031;-45
2021/11/06 08:09:18;;;;;;;3.15;2.75;;;;;;;9.74;100.00;101541.09;1749109;82;21775;-46
2021/11/06 08:11:44;;;;;;;3.87;2.77;;;;;;;9.73;100.00;101551.00;1749109;81;20893;-46
2021/11/06 08:14:12;;;;;;;3.30;2.20;;;;;;;9.73;100.00;101561.34;1749204;82;20948;-46
2021/11/06 08:19:24;;;;;;;3.10;1.75;;;;;;;9.73;100.00;101587.61;1797693;79;23257;-44
2021/11/06 08:21:51;;;;;;;4.40;1.90;;;;;;;9.55;100.00;101588.42;1738080;81;20987;-44
2021/11/06 08:24:19;;;;;;;7.75;1.95;;;;;;;9.46;96.25;101597.84;1757353;81;22139;-44
2021/11/06 08:26:46;;;;;;;1.80;1.70;;;;;;;9.41;95.20;101593.09;1737966;81;21038;-44
2021/11/06 08:29:13;;;;;;;4.87;1.57;;;;;;;9.39;95.52;101577.16;1757287;81;20948;-44
2021/11/06 08:31:40;;;;;;;2.02;1.70;;;;;;;9.37;95.27;101584.04;1757314;81;20944;-44
2021/11/06 08:34:08;;;;;;;2.62;1.70;;;;;;;9.36;95.24;101581.88;1757368;81;20944;-44
2021/11/06 08:36:36;;;;;;;4.67;1.92;;;;;;;9.34;94.82;101582.30;1757373;81;21145;-44
2021/11/06 08:39:06;;;;;;;2.15;1.57;;;;;;;9.32;94.86;101587.89;1757244;81;20956;-44
2021/11/06 08:41:34;;;;;;;5.55;1.65;;;;;;;9.32;94.99;101595.64;1756915;81;21042;-45
2021/11/06 08:44:00;;;;;;;2.67;1.60;;;;;;;9.32;94.94;101604.68;1749064;82;20960;-45
2021/11/06 08:46:27;;;;;;;2.58;1.70;;;;;;;9.32;95.24;101605.53;1749249;82;21050;-45
2021/11/06 08:48:53;;;;;;;1.98;1.87;;;;;;;9.33;95.53;101612.42;1749046;82;21139;-45
2021/11/06 08:51:20;;;;;;;2.75;1.90;;;;;;;9.35;95.29;101609.86;1719610;82;20943;-45
2021/11/06 08:53:49;;;;;;;2.00;1.90;;;;;;;9.34;94.89;101605.10;1748993;82;20971;-45
2021/11/06 08:56:16;;;;;;;2.72;1.67;;;;;;;9.35;95.02;101605.98;1749449;81;20979;-45
2021/11/06 08:58:43;;;;;;;5.30;1.70;;;;;;;9.38;95.15;101604.70;1748928;82;21323;-45
2021/11/06 09:01:09;;;;;;;2.85;1.90;;;;;;;9.40;95.39;101610.73;1748978;82;21139;-45
2021/11/06 09:03:36;;;;;;;4.40;2.05;;;;;;;9.42;95.27;101616.78;1719366;82;20971;-45
2021/11/06 09:06:02;;;;;;;1.92;1.80;;;;;;;9.42;95.43;101603.86;1719549;82;20912;-45
2021/11/06 09:08:31;;;;;;;2.10;1.90;;;;;;;9.45;95.24;101601.73;1749419;82;21470;-45
2021/11/06 09:11:02;;;;;;;4.12;2.00;;;;;;;9.46;95.58;101614.64;1748923;82;20960;-45
2021/11/06 09:13:30;;;;;;;5.15;2.35;;;;;;;9.47;95.14;101618.98;1749286;82;21015;-45
2021/11/06 09:15:59;;;;;;;2.35;2.15;;;;;;;9.46;95.33;101628.01;1748919;81;21031;-45
2021/11/06 09:18:26;;;;;;;5.03;2.50;;;;;;;9.44;95.52;101630.57;1749387;81;20916;-45
2021/11/06 09:20:53;;;;;;;5.28;2.40;;;;;;;9.45;95.96;101631.45;1721843;82;21044;-45
2021/11/06 09:23:19;;;;;;;4.35;2.62;;;;;;;9.47;96.37;101614.23;1750195;82;20987;-45
2021/11/06 09:25:47;;;;;;;2.62;2.45;;;;;;;9.47;96.08;101612.52;1721868;82;21647;-45
2021/11/06 09:28:13;;;;;;;5.72;2.70;;;;;;;9.51;96.39;101627.59;1750061;82;21002;-45
2021/11/06 09:30:40;;;;;;;2.65;2.45;;;;;;;9.56;96.39;101632.80;1749332;82;21517;-45
2021/11/06 09:33:07;;;;;;;2.60;2.40;;;;;;;9.56;94.60;101627.63;1749212;82;20999;-45
2021/11/06 09:35:34;;;;;;;2.98;2.65;;;;;;;9.58;92.40;101612.98;1721627;82;21573;-45
2021/11/06 09:38:01;;;;;;;2.60;2.20;;;;;;;9.62;90.98;101608.26;1749349;82;21931;-45
2021/11/06 09:40:27;;;;;;;5.20;2.50;;;;;;;9.67;90.85;101615.59;1749291;82;20964;-45
2021/11/06 09:42:53;;;;;;;4.65;2.22;;;;;;;9.73;90.28;101607.01;1749168;82;21488;-45
2021/11/06 09:45:20;;;;;;;2.55;2.20;;;;;;;9.73;89.50;101619.52;1749208;81;20929;-44
2021/11/06 09:47:47;;;;;;;5.10;2.40;;;;;;;9.75;90.04;101622.09;1721374;82;21545;-45
2021/11/06 09:50:15;;;;;;;3.10;2.58;;;;;;;9.81;90.58;101622.55;1749500;82;21903;-45
2021/11/06 09:52:43;;;;;;;6.15;2.77;;;;;;;9.83;90.87;101621.68;1749060;82;21002;-45
2021/11/06 09:55:09;;;;;;;3.47;2.87;;;;;;;9.89;90.82;101611.80;1749353;82;21434;-44
2021/11/06 09:57:36;;;;;;;4.45;3.65;;;;;;;9.93;90.89;101605.77;1749384;82;21513;-45
2021/11/06 10:00:06;;;;;;;2.70;2.50;;;;;;;9.98;91.02;101593.73;1749573;82;21556;-45
2021/11/06 10:02:34;;;;;;;2.90;2.50;;;;;;;10.04;90.10;101599.32;1748794;82;21159;-45
2021/11/06 10:05:00;;;;;;;3.77;2.70;;;;;;;10.03;89.84;101600.19;1749589;82;20961;-45
2021/11/06 10:07:27;;;;;;;2.87;2.67;;;;;;;9.96;87.13;101596.72;1749323;82;20997;-45
2021/11/06 10:10:13;;;;;;;3.02;2.72;;;;;;;9.93;86.77;101595.41;1749322;82;20960;-45
2021/11/06 10:12:51;;;;;;;7.87;2.77;;;;;;;9.91;87.18;101602.31;1749362;81;20960;-45
2021/11/06 10:15:19;;;;;;;2.70;2.50;;;;;;;9.85;85.75;101607.06;1721844;82;20980;-44
2021/11/06 10:17:46;;;;;;;4.05;2.80;;;;;;;9.74;84.92;101601.86;1749059;81;21686;-44
2021/11/06 10:20:30;;;;;;;3.22;2.42;;;;;;;9.71;84.49;101597.09;1749580;81;21481;-44
2021/11/06 10:23:01;;;;;;;3.08;2.45;;;;;;;9.65;84.18;101605.68;1749223;82;20943;-45
2021/11/06 10:25:28;;;;;;;5.20;2.87;;;;;;;9.61;84.04;101597.48;1721609;82;20936;-45
2021/11/06 10:28:01;;;;;;;2.62;2.42;;;;;;;9.61;84.36;101603.94;1721567;82;21233;-45
2021/11/06 10:30:39;;;;;;;3.65;2.58;;;;;;;9.57;84.47;101602.20;1749328;82;20971;-45
2021/11/06 10:33:15;;;;;;;4.65;2.77;;;;;;;9.60;84.52;101606.09;1749368;82;20983;-45
2021/11/06 10:35:48;;;;;;;2.50;2.30;;;;;;;9.59;84.58;101600.49;1749424;82;20995;-45
2021/11/06 10:38:21;;;;;;;4.47;2.80;;;;;;;9.61;85.11;101587.14;1749369;82;20944;-45
2021/11/06 10:40:59;;;;;;;3.30;3.00;;;;;;;9.64;83.37;101585.86;1749259;82;21082;-45
2021/11/06 10:43:26;;;;;;;2.75;2.27;;;;;;;9.65;83.25;101596.63;1749307;82;20944;-45
2021/11/06 10:45:58;;;;;;;3.02;2.77;;;;;;;9.69;84.19;101584.14;1749357;82;21023;-45
2021/11/06 10:48:33;;;;;;;5.97;2.52;;;;;;;9.71;84.27;101581.58;1721387;82;20897;-45
2021/11/06 10:51:03;;;;;;;2.52;2.33;;;;;;;9.74;85.15;101587.63;1722112;82;20988;-46
2021/11/06 10:53:42;;;;;;;2.27;2.17;;;;;;;9.79;85.80;101577.28;1749527;82;21080;-45
2021/11/06 10:56:27;;;;;;;2.55;2.35;;;;;;;9.78;85.11;101591.95;1749106;82;21506;-44
2021/11/06 10:59:11;;;;;;;5.00;2.55;;;;;;;9.73;83.32;101598.84;1747766;82;20972;-45
2021/11/06 11:01:40;;;;;;;2.40;2.20;;;;;;;9.70;83.74;101600.53;1748682;82;20960;-45
2021/11/06 11:04:09;;;;;;;3.00;2.33;;;;;;;9.71;82.71;101593.21;1749401;81;21031;-45
2021/11/06 11:06:55;;;;;;;2.65;2.45;;;;;;;9.76;82.79;101578.56;1749220;82;21138;-45
2021/11/06 11:09:30;;;;;;;2.90;2.70;;;;;;;9.84;83.02;101596.25;1749170;80;21463;-45
2021/11/06 11:11:58;;;;;;;2.92;2.65;;;;;;;9.92;83.05;101587.22;1748858;82;20972;-45
2021/11/06 11:14:31;;;;;;;3.62;3.33;;;;;;;9.96;82.92;101582.94;1749205;82;22397;-45
2021/11/06 11:17:05;;;;;;;3.90;2.85;;;;;;;9.99;82.81;101581.23;1748637;82;20936;-45
2021/11/06 11:19:38;;;;;;;6.90;3.42;;;;;;;9.99;81.79;101583.81;1749155;82;20960;-46